Kanesville, Utah
Current Conditions -  °F | °C
As of 5:53 PM on Sunday 23 Nov 2014 (Local Time) from KOGD Reporting Station
Broken Clouds Broken Clouds  
Wind Chill: 27°   Ceiling: 5500
Heat Index: 33°   Visibility: 10mi
Dew Point: 24°   Wind: 7mph
Humidity: 70%   Direction: 200°SSW
Pressure: 30.21"   Gusts: NA
Location:  41.1783°N, 112.12°W
Report Text: KOGD 240053Z AUTO 20006KT 10SM BKN055 01/M04 A3021 RMK AO2 SLP240 T00061044 TSNO
Loading
Personal Weather Stations






























Interactive Weather Map New forecast layout! Learn more

10-Day Weather Forecast

Advertisements
Track Severe Weather on mobile